Aviation Digital Data Service (ADDS)

Output produced by METARs form (2049 UTC 08 August 2020)
found at http://www.aviationweather.gov/metar/data/
 
Forecast for: ETNL (LAAGE , DE)
Text: TAF ETNL 081700Z 0817/0905 03008KT 9999 NSW FEW250 BY ETGL
Forecast period: 1700 UTC 08 August 2020 to 0500 UTC 09 August 2020
Forecast type: FROM: standard forecast or significant change
Winds: from the NNE (30 degrees) at 9 MPH (8 knots; 4.1 m/s)
Visibility: 6 or more miles (10+ km)
Ceiling: at least 12,000 feet AGL
Clouds: few clouds at 25000 feet AGL
Weather: NSW  (no significant weather)